sensor_id;sensor_type;location;lat;lon;timestamp;P1;durP1;ratioP1;P2;durP2;ratioP2
51921;SDS011;37948;53.260;6.394;2022-09-09T00:01:58;8.88;;;5.47;;
51921;SDS011;37948;53.260;6.394;2022-09-09T00:04:33;7.30;;;5.18;;
51921;SDS011;37948;53.260;6.394;2022-09-09T00:15:57;6.22;;;4.80;;
51921;SDS011;37948;53.260;6.394;2022-09-09T00:21:20;5.55;;;5.00;;
51921;SDS011;37948;53.260;6.394;2022-09-09T00:23:59;5.28;;;4.85;;
51921;SDS011;37948;53.260;6.394;2022-09-09T00:29:10;8.20;;;4.82;;
51921;SDS011;37948;53.260;6.394;2022-09-09T00:32:05;6.85;;;4.55;;
51921;SDS011;37948;53.260;6.394;2022-09-09T00:34:46;6.45;;;4.82;;
51921;SDS011;37948;53.260;6.394;2022-09-09T00:37:14;8.50;;;6.03;;
51921;SDS011;37948;53.260;6.394;2022-09-09T00:39:41;12.15;;;5.28;;
51921;SDS011;37948;53.260;6.394;2022-09-09T00:42:17;7.70;;;5.20;;
51921;SDS011;37948;53.260;6.394;2022-09-09T00:50:15;9.90;;;4.90;;
51921;SDS011;37948;53.260;6.394;2022-09-09T00:52:55;7.57;;;5.82;;
51921;SDS011;37948;53.260;6.394;2022-09-09T00:55:48;7.72;;;5.22;;
51921;SDS011;37948;53.260;6.394;2022-09-09T00:58:16;9.75;;;5.07;;
51921;SDS011;37948;53.260;6.394;2022-09-09T01:00:46;9.65;;;4.82;;
51921;SDS011;37948;53.260;6.394;2022-09-09T01:03:30;7.90;;;4.78;;
51921;SDS011;37948;53.260;6.394;2022-09-09T01:06:10;5.80;;;5.30;;
51921;SDS011;37948;53.260;6.394;2022-09-09T01:13:47;9.60;;;4.70;;
51921;SDS011;37948;53.260;6.394;2022-09-09T01:16:18;7.45;;;5.55;;
51921;SDS011;37948;53.260;6.394;2022-09-09T01:18:45;9.07;;;4.88;;
51921;SDS011;37948;53.260;6.394;2022-09-09T01:21:30;7.32;;;5.18;;
51921;SDS011;37948;53.260;6.394;2022-09-09T01:26:48;5.63;;;5.03;;
51921;SDS011;37948;53.260;6.394;2022-09-09T01:29:17;7.93;;;4.78;;
51921;SDS011;37948;53.260;6.394;2022-09-09T01:31:55;6.75;;;4.80;;
51921;SDS011;37948;53.260;6.394;2022-09-09T01:34:24;7.05;;;5.22;;
51921;SDS011;37948;53.260;6.394;2022-09-09T01:36:54;5.88;;;4.65;;
51921;SDS011;37948;53.260;6.394;2022-09-09T01:39:21;6.63;;;4.80;;
51921;SDS011;37948;53.260;6.394;2022-09-09T01:41:46;9.25;;;4.90;;
51921;SDS011;37948;53.260;6.394;2022-09-09T01:44:12;6.25;;;5.18;;
51921;SDS011;37948;53.260;6.394;2022-09-09T01:46:38;7.85;;;4.70;;
51921;SDS011;37948;53.260;6.394;2022-09-09T01:49:05;14.32;;;4.78;;
51921;SDS011;37948;53.260;6.394;2022-09-09T01:51:32;5.57;;;4.80;;
51921;SDS011;37948;53.260;6.394;2022-09-09T01:53:59;6.28;;;4.55;;
51921;SDS011;37948;53.260;6.394;2022-09-09T01:56:35;6.50;;;4.43;;
51921;SDS011;37948;53.260;6.394;2022-09-09T01:59:28;7.28;;;4.75;;
51921;SDS011;37948;53.260;6.394;2022-09-09T02:02:16;5.22;;;4.47;;
51921;SDS011;37948;53.260;6.394;2022-09-09T02:04:45;6.05;;;4.95;;
51921;SDS011;37948;53.260;6.394;2022-09-09T02:09:57;7.35;;;4.18;;
51921;SDS011;37948;53.260;6.394;2022-09-09T02:12:27;7.85;;;4.15;;
51921;SDS011;37948;53.260;6.394;2022-09-09T02:14:55;4.47;;;4.05;;
51921;SDS011;37948;53.260;6.394;2022-09-09T02:17:28;4.97;;;3.95;;
51921;SDS011;37948;53.260;6.394;2022-09-09T02:20:06;7.68;;;4.28;;
51921;SDS011;37948;53.260;6.394;2022-09-09T02:22:35;5.10;;;4.30;;
51921;SDS011;37948;53.260;6.394;2022-09-09T02:25:04;6.72;;;4.78;;
51921;SDS011;37948;53.260;6.394;2022-09-09T02:27:33;5.35;;;3.80;;
51921;SDS011;37948;53.260;6.394;2022-09-09T02:30:00;6.65;;;4.57;;
51921;SDS011;37948;53.260;6.394;2022-09-09T02:32:28;6.57;;;4.20;;
51921;SDS011;37948;53.260;6.394;2022-09-09T02:35:02;11.65;;;4.68;;
51921;SDS011;37948;53.260;6.394;2022-09-09T02:37:34;9.77;;;5.32;;
51921;SDS011;37948;53.260;6.394;2022-09-09T02:40:06;7.93;;;5.13;;
51921;SDS011;37948;53.260;6.394;2022-09-09T02:42:43;5.70;;;4.85;;
51921;SDS011;37948;53.260;6.394;2022-09-09T02:45:14;5.32;;;4.82;;
51921;SDS011;37948;53.260;6.394;2022-09-09T02:50:25;11.98;;;5.68;;
51921;SDS011;37948;53.260;6.394;2022-09-09T02:55:39;10.75;;;5.65;;
51921;SDS011;37948;53.260;6.394;2022-09-09T02:58:23;7.88;;;5.20;;
51921;SDS011;37948;53.260;6.394;2022-09-09T03:00:49;10.23;;;5.35;;
51921;SDS011;37948;53.260;6.394;2022-09-09T03:03:16;9.57;;;6.05;;
51921;SDS011;37948;53.260;6.394;2022-09-09T03:05:43;9.95;;;5.32;;
51921;SDS011;37948;53.260;6.394;2022-09-09T03:08:09;10.93;;;5.90;;
51921;SDS011;37948;53.260;6.394;2022-09-09T03:10:36;7.28;;;6.05;;
51921;SDS011;37948;53.260;6.394;2022-09-09T03:13:02;9.65;;;5.43;;
51921;SDS011;37948;53.260;6.394;2022-09-09T03:15:30;11.02;;;6.00;;
51921;SDS011;37948;53.260;6.394;2022-09-09T03:17:57;11.13;;;5.32;;
51921;SDS011;37948;53.260;6.394;2022-09-09T03:20:24;8.52;;;5.68;;
51921;SDS011;37948;53.260;6.394;2022-09-09T03:22:51;8.80;;;5.35;;
51921;SDS011;37948;53.260;6.394;2022-09-09T03:25:17;6.78;;;5.75;;
51921;SDS011;37948;53.260;6.394;2022-09-09T03:27:43;7.45;;;5.95;;
51921;SDS011;37948;53.260;6.394;2022-09-09T03:30:08;8.93;;;6.20;;
51921;SDS011;37948;53.260;6.394;2022-09-09T03:32:34;7.60;;;5.97;;
51921;SDS011;37948;53.260;6.394;2022-09-09T03:35:00;7.28;;;5.82;;
51921;SDS011;37948;53.260;6.394;2022-09-09T03:37:26;8.48;;;5.93;;
51921;SDS011;37948;53.260;6.394;2022-09-09T03:39:51;9.73;;;6.00;;
51921;SDS011;37948;53.260;6.394;2022-09-09T03:42:19;7.53;;;6.45;;
51921;SDS011;37948;53.260;6.394;2022-09-09T03:44:46;9.20;;;6.10;;
51921;SDS011;37948;53.260;6.394;2022-09-09T03:47:15;8.45;;;6.10;;
51921;SDS011;37948;53.260;6.394;2022-09-09T03:49:46;5.97;;;5.38;;
51921;SDS011;37948;53.260;6.394;2022-09-09T03:52:12;12.23;;;6.57;;
51921;SDS011;37948;53.260;6.394;2022-09-09T03:54:37;12.00;;;6.10;;
51921;SDS011;37948;53.260;6.394;2022-09-09T03:57:04;7.75;;;5.95;;
51921;SDS011;37948;53.260;6.394;2022-09-09T03:59:29;10.48;;;5.88;;
51921;SDS011;37948;53.260;6.394;2022-09-09T04:01:55;10.95;;;5.75;;
51921;SDS011;37948;53.260;6.394;2022-09-09T04:04:22;14.57;;;6.40;;
51921;SDS011;37948;53.260;6.394;2022-09-09T04:06:48;8.48;;;5.25;;
51921;SDS011;37948;53.260;6.394;2022-09-09T04:09:14;8.27;;;5.95;;
51921;SDS011;37948;53.260;6.394;2022-09-09T04:11:39;5.63;;;5.13;;
51921;SDS011;37948;53.260;6.394;2022-09-09T04:14:05;8.27;;;5.35;;
51921;SDS011;37948;53.260;6.394;2022-09-09T04:16:31;6.85;;;4.55;;
51921;SDS011;37948;53.260;6.394;2022-09-09T04:18:57;8.77;;;4.85;;
51921;SDS011;37948;53.260;6.394;2022-09-09T04:21:25;8.68;;;4.85;;
51921;SDS011;37948;53.260;6.394;2022-09-09T04:23:50;4.97;;;4.47;;
51921;SDS011;37948;53.260;6.394;2022-09-09T04:26:16;6.07;;;4.53;;
51921;SDS011;37948;53.260;6.394;2022-09-09T04:28:42;6.65;;;4.70;;
51921;SDS011;37948;53.260;6.394;2022-09-09T04:31:14;6.05;;;4.18;;
51921;SDS011;37948;53.260;6.394;2022-09-09T04:33:45;6.13;;;4.03;;
51921;SDS011;37948;53.260;6.394;2022-09-09T04:36:11;5.00;;;4.10;;
51921;SDS011;37948;53.260;6.394;2022-09-09T04:38:37;7.15;;;4.38;;
51921;SDS011;37948;53.260;6.394;2022-09-09T04:41:03;7.97;;;4.53;;
51921;SDS011;37948;53.260;6.394;2022-09-09T04:43:29;4.85;;;4.45;;
51921;SDS011;37948;53.260;6.394;2022-09-09T04:45:55;6.57;;;4.47;;
51921;SDS011;37948;53.260;6.394;2022-09-09T04:48:21;6.03;;;4.00;;
51921;SDS011;37948;53.260;6.394;2022-09-09T04:50:53;6.65;;;4.28;;
51921;SDS011;37948;53.260;6.394;2022-09-09T04:53:29;5.28;;;3.75;;
51921;SDS011;37948;53.260;6.394;2022-09-09T04:56:05;4.88;;;4.07;;
51921;SDS011;37948;53.260;6.394;2022-09-09T04:58:32;6.47;;;4.05;;
51921;SDS011;37948;53.260;6.394;2022-09-09T05:01:10;5.07;;;3.75;;
51921;SDS011;37948;53.260;6.394;2022-09-09T05:03:43;6.07;;;4.38;;
51921;SDS011;37948;53.260;6.394;2022-09-09T05:06:11;7.15;;;4.07;;
51921;SDS011;37948;53.260;6.394;2022-09-09T05:08:39;9.52;;;4.70;;
51921;SDS011;37948;53.260;6.394;2022-09-09T05:11:22;4.32;;;3.92;;
51921;SDS011;37948;53.260;6.394;2022-09-09T05:13:49;5.22;;;3.65;;
51921;SDS011;37948;53.260;6.394;2022-09-09T05:16:15;4.95;;;4.35;;
51921;SDS011;37948;53.260;6.394;2022-09-09T05:18:42;10.13;;;4.40;;
51921;SDS011;37948;53.260;6.394;2022-09-09T05:21:08;4.53;;;4.13;;
51921;SDS011;37948;53.260;6.394;2022-09-09T05:23:35;4.97;;;4.03;;
51921;SDS011;37948;53.260;6.394;2022-09-09T05:26:02;10.73;;;5.60;;
51921;SDS011;37948;53.260;6.394;2022-09-09T05:28:28;6.68;;;4.22;;
51921;SDS011;37948;53.260;6.394;2022-09-09T05:30:58;6.13;;;4.50;;
51921;SDS011;37948;53.260;6.394;2022-09-09T05:33:25;5.97;;;4.53;;
51921;SDS011;37948;53.260;6.394;2022-09-09T05:36:02;5.00;;;4.28;;
51921;SDS011;37948;53.260;6.394;2022-09-09T05:38:33;7.15;;;5.00;;
51921;SDS011;37948;53.260;6.394;2022-09-09T05:40:59;5.72;;;4.55;;
51921;SDS011;37948;53.260;6.394;2022-09-09T05:43:26;10.35;;;5.00;;
51921;SDS011;37948;53.260;6.394;2022-09-09T05:46:02;7.60;;;4.82;;
51921;SDS011;37948;53.260;6.394;2022-09-09T05:48:29;7.63;;;5.13;;
51921;SDS011;37948;53.260;6.394;2022-09-09T05:50:57;7.72;;;5.05;;
51921;SDS011;37948;53.260;6.394;2022-09-09T05:53:23;5.40;;;4.63;;
51921;SDS011;37948;53.260;6.394;2022-09-09T05:55:49;9.18;;;5.32;;
51921;SDS011;37948;53.260;6.394;2022-09-09T05:58:15;11.73;;;5.47;;
51921;SDS011;37948;53.260;6.394;2022-09-09T06:00:42;12.35;;;6.05;;
51921;SDS011;37948;53.260;6.394;2022-09-09T06:03:10;9.88;;;4.97;;
51921;SDS011;37948;53.260;6.394;2022-09-09T06:05:36;7.70;;;5.47;;
51921;SDS011;37948;53.260;6.394;2022-09-09T06:08:02;6.72;;;5.63;;
51921;SDS011;37948;53.260;6.394;2022-09-09T06:10:28;10.63;;;6.07;;
51921;SDS011;37948;53.260;6.394;2022-09-09T06:12:54;6.65;;;5.50;;
51921;SDS011;37948;53.260;6.394;2022-09-09T06:15:19;8.68;;;5.95;;
51921;SDS011;37948;53.260;6.394;2022-09-09T06:17:45;8.80;;;6.25;;
51921;SDS011;37948;53.260;6.394;2022-09-09T06:20:10;7.70;;;5.97;;
51921;SDS011;37948;53.260;6.394;2022-09-09T06:22:39;10.85;;;6.35;;
51921;SDS011;37948;53.260;6.394;2022-09-09T06:25:06;9.07;;;6.47;;
51921;SDS011;37948;53.260;6.394;2022-09-09T06:27:33;7.25;;;6.00;;
51921;SDS011;37948;53.260;6.394;2022-09-09T06:29:58;17.55;;;6.97;;
51921;SDS011;37948;53.260;6.394;2022-09-09T06:32:24;8.38;;;6.18;;
51921;SDS011;37948;53.260;6.394;2022-09-09T06:34:51;13.25;;;5.95;;
51921;SDS011;37948;53.260;6.394;2022-09-09T06:37:17;7.78;;;6.10;;
51921;SDS011;37948;53.260;6.394;2022-09-09T06:39:43;7.75;;;5.85;;
51921;SDS011;37948;53.260;6.394;2022-09-09T06:42:09;10.00;;;6.45;;
51921;SDS011;37948;53.260;6.394;2022-09-09T06:44:34;8.48;;;6.10;;
51921;SDS011;37948;53.260;6.394;2022-09-09T06:47:01;5.57;;;5.05;;
51921;SDS011;37948;53.260;6.394;2022-09-09T06:49:26;8.10;;;5.80;;
51921;SDS011;37948;53.260;6.394;2022-09-09T06:51:52;10.98;;;6.28;;
51921;SDS011;37948;53.260;6.394;2022-09-09T06:54:18;6.22;;;5.57;;
51921;SDS011;37948;53.260;6.394;2022-09-09T06:56:44;7.10;;;5.68;;
51921;SDS011;37948;53.260;6.394;2022-09-09T06:59:10;8.93;;;5.63;;
51921;SDS011;37948;53.260;6.394;2022-09-09T07:01:41;7.40;;;5.93;;
51921;SDS011;37948;53.260;6.394;2022-09-09T07:04:08;6.22;;;5.65;;
51921;SDS011;37948;53.260;6.394;2022-09-09T07:06:40;6.50;;;5.75;;
51921;SDS011;37948;53.260;6.394;2022-09-09T07:09:11;6.03;;;5.40;;
51921;SDS011;37948;53.260;6.394;2022-09-09T07:11:39;13.38;;;6.60;;
51921;SDS011;37948;53.260;6.394;2022-09-09T07:14:09;8.18;;;5.45;;
51921;SDS011;37948;53.260;6.394;2022-09-09T07:16:39;5.78;;;5.28;;
51921;SDS011;37948;53.260;6.394;2022-09-09T07:19:08;7.47;;;5.68;;
51921;SDS011;37948;53.260;6.394;2022-09-09T07:21:35;7.72;;;5.05;;
51921;SDS011;37948;53.260;6.394;2022-09-09T07:24:01;6.28;;;5.07;;
51921;SDS011;37948;53.260;6.394;2022-09-09T07:26:28;8.52;;;4.82;;
51921;SDS011;37948;53.260;6.394;2022-09-09T07:28:55;7.40;;;4.90;;
51921;SDS011;37948;53.260;6.394;2022-09-09T07:31:26;6.18;;;4.40;;
51921;SDS011;37948;53.260;6.394;2022-09-09T07:33:55;9.00;;;5.30;;
51921;SDS011;37948;53.260;6.394;2022-09-09T07:36:22;8.98;;;5.60;;
51921;SDS011;37948;53.260;6.394;2022-09-09T07:38:53;6.13;;;5.20;;
51921;SDS011;37948;53.260;6.394;2022-09-09T07:41:21;14.68;;;5.70;;
51921;SDS011;37948;53.260;6.394;2022-09-09T07:43:48;6.68;;;5.30;;
51921;SDS011;37948;53.260;6.394;2022-09-09T07:46:15;7.13;;;5.13;;
51921;SDS011;37948;53.260;6.394;2022-09-09T07:48:45;6.82;;;4.50;;
51921;SDS011;37948;53.260;6.394;2022-09-09T07:51:13;7.82;;;5.13;;
51921;SDS011;37948;53.260;6.394;2022-09-09T07:53:44;7.75;;;4.93;;
51921;SDS011;37948;53.260;6.394;2022-09-09T07:56:12;8.15;;;4.65;;
51921;SDS011;37948;53.260;6.394;2022-09-09T07:58:40;6.75;;;4.70;;
51921;SDS011;37948;53.260;6.394;2022-09-09T08:01:09;6.97;;;4.43;;
51921;SDS011;37948;53.260;6.394;2022-09-09T08:03:37;5.85;;;4.93;;
51921;SDS011;37948;53.260;6.394;2022-09-09T08:06:03;7.63;;;4.28;;
51921;SDS011;37948;53.260;6.394;2022-09-09T08:08:32;5.95;;;4.22;;
51921;SDS011;37948;53.260;6.394;2022-09-09T08:11:08;9.13;;;4.00;;
51921;SDS011;37948;53.260;6.394;2022-09-09T08:13:39;7.03;;;4.73;;
51921;SDS011;37948;53.260;6.394;2022-09-09T08:18:37;6.32;;;4.28;;
51921;SDS011;37948;53.260;6.394;2022-09-09T08:21:07;5.18;;;4.10;;
51921;SDS011;37948;53.260;6.394;2022-09-09T08:23:38;8.32;;;4.18;;
51921;SDS011;37948;53.260;6.394;2022-09-09T08:26:13;4.65;;;3.85;;
51921;SDS011;37948;53.260;6.394;2022-09-09T08:28:40;6.35;;;3.72;;
51921;SDS011;37948;53.260;6.394;2022-09-09T08:31:08;4.55;;;3.67;;
51921;SDS011;37948;53.260;6.394;2022-09-09T08:33:39;6.10;;;3.57;;
51921;SDS011;37948;53.260;6.394;2022-09-09T08:36:06;7.53;;;3.95;;
51921;SDS011;37948;53.260;6.394;2022-09-09T08:38:34;7.72;;;4.32;;
51921;SDS011;37948;53.260;6.394;2022-09-09T08:41:09;7.45;;;3.67;;
51921;SDS011;37948;53.260;6.394;2022-09-09T08:47:01;6.35;;;3.38;;
51921;SDS011;37948;53.260;6.394;2022-09-09T08:53:01;5.40;;;3.70;;
51921;SDS011;37948;53.260;6.394;2022-09-09T09:00:58;8.95;;;3.70;;
51921;SDS011;37948;53.260;6.394;2022-09-09T09:03:48;3.92;;;3.15;;
51921;SDS011;37948;53.260;6.394;2022-09-09T09:11:48;7.35;;;3.67;;
51921;SDS011;37948;53.260;6.394;2022-09-09T09:14:20;9.75;;;4.40;;
51921;SDS011;37948;53.260;6.394;2022-09-09T09:16:52;9.10;;;4.20;;
51921;SDS011;37948;53.260;6.394;2022-09-09T09:19:21;6.18;;;2.92;;
51921;SDS011;37948;53.260;6.394;2022-09-09T09:24:34;10.68;;;3.17;;
51921;SDS011;37948;53.260;6.394;2022-09-09T09:27:12;4.13;;;2.70;;
51921;SDS011;37948;53.260;6.394;2022-09-09T09:29:39;6.72;;;2.60;;
51921;SDS011;37948;53.260;6.394;2022-09-09T09:32:08;3.45;;;2.38;;
51921;SDS011;37948;53.260;6.394;2022-09-09T09:34:38;6.22;;;2.88;;
51921;SDS011;37948;53.260;6.394;2022-09-09T09:37:07;6.82;;;2.78;;
51921;SDS011;37948;53.260;6.394;2022-09-09T09:39:52;6.53;;;3.30;;
51921;SDS011;37948;53.260;6.394;2022-09-09T09:42:18;7.68;;;2.58;;
51921;SDS011;37948;53.260;6.394;2022-09-09T09:44:44;7.93;;;3.22;;
51921;SDS011;37948;53.260;6.394;2022-09-09T09:47:11;10.30;;;2.88;;
51921;SDS011;37948;53.260;6.394;2022-09-09T09:49:51;5.43;;;2.13;;
51921;SDS011;37948;53.260;6.394;2022-09-09T09:52:20;7.20;;;2.70;;
51921;SDS011;37948;53.260;6.394;2022-09-09T09:54:57;6.05;;;2.45;;
51921;SDS011;37948;53.260;6.394;2022-09-09T09:57:27;4.35;;;2.15;;
51921;SDS011;37948;53.260;6.394;2022-09-09T10:00:12;5.35;;;2.55;;
51921;SDS011;37948;53.260;6.394;2022-09-09T10:02:41;6.68;;;2.53;;
51921;SDS011;37948;53.260;6.394;2022-09-09T10:08:04;8.25;;;2.47;;
51921;SDS011;37948;53.260;6.394;2022-09-09T10:13:20;11.40;;;2.65;;
51921;SDS011;37948;53.260;6.394;2022-09-09T10:16:08;8.82;;;2.20;;
51921;SDS011;37948;53.260;6.394;2022-09-09T10:26:55;8.80;;;2.13;;
51921;SDS011;37948;53.260;6.394;2022-09-09T10:32:28;9.07;;;2.25;;
51921;SDS011;37948;53.260;6.394;2022-09-09T10:37:56;10.90;;;2.47;;
51921;SDS011;37948;53.260;6.394;2022-09-09T10:40:34;5.93;;;2.20;;
51921;SDS011;37948;53.260;6.394;2022-09-09T10:46:23;9.38;;;1.60;;
51921;SDS011;37948;53.260;6.394;2022-09-09T10:49:17;6.20;;;2.28;;
51921;SDS011;37948;53.260;6.394;2022-09-09T10:54:59;6.63;;;2.10;;
51921;SDS011;37948;53.260;6.394;2022-09-09T10:57:37;6.78;;;2.10;;
51921;SDS011;37948;53.260;6.394;2022-09-09T11:00:16;6.65;;;1.95;;
51921;SDS011;37948;53.260;6.394;2022-09-09T11:02:43;6.45;;;1.80;;
51921;SDS011;37948;53.260;6.394;2022-09-09T11:05:10;7.00;;;1.88;;
51921;SDS011;37948;53.260;6.394;2022-09-09T11:10:22;7.45;;;1.90;;
51921;SDS011;37948;53.260;6.394;2022-09-09T11:13:11;4.25;;;1.90;;
51921;SDS011;37948;53.260;6.394;2022-09-09T11:15:44;4.70;;;1.50;;
51921;SDS011;37948;53.260;6.394;2022-09-09T11:18:16;4.93;;;1.30;;
51921;SDS011;37948;53.260;6.394;2022-09-09T11:20:47;3.83;;;1.08;;
51921;SDS011;37948;53.260;6.394;2022-09-09T11:23:24;6.00;;;1.80;;
51921;SDS011;37948;53.260;6.394;2022-09-09T11:26:04;7.40;;;1.63;;
51921;SDS011;37948;53.260;6.394;2022-09-09T11:33:46;3.88;;;1.27;;
51921;SDS011;37948;53.260;6.394;2022-09-09T11:36:38;5.80;;;1.40;;
51921;SDS011;37948;53.260;6.394;2022-09-09T11:42:25;3.75;;;1.38;;
51921;SDS011;37948;53.260;6.394;2022-09-09T11:44:51;3.47;;;1.42;;
51921;SDS011;37948;53.260;6.394;2022-09-09T11:47:23;5.15;;;1.17;;
51921;SDS011;37948;53.260;6.394;2022-09-09T11:49:54;4.55;;;1.23;;
51921;SDS011;37948;53.260;6.394;2022-09-09T11:52:36;7.68;;;1.38;;
51921;SDS011;37948;53.260;6.394;2022-09-09T11:55:11;4.45;;;1.80;;
51921;SDS011;37948;53.260;6.394;2022-09-09T11:57:57;5.43;;;1.40;;
51921;SDS011;37948;53.260;6.394;2022-09-09T12:00:57;5.32;;;1.40;;
51921;SDS011;37948;53.260;6.394;2022-09-09T12:06:07;7.88;;;1.35;;
51921;SDS011;37948;53.260;6.394;2022-09-09T12:08:41;3.45;;;1.25;;
51921;SDS011;37948;53.260;6.394;2022-09-09T12:11:10;3.83;;;0.95;;
51921;SDS011;37948;53.260;6.394;2022-09-09T12:13:36;6.78;;;1.30;;
51921;SDS011;37948;53.260;6.394;2022-09-09T12:16:02;12.95;;;1.65;;
51921;SDS011;37948;53.260;6.394;2022-09-09T12:18:34;11.15;;;1.95;;
51921;SDS011;37948;53.260;6.394;2022-09-09T12:21:06;6.72;;;1.38;;
51921;SDS011;37948;53.260;6.394;2022-09-09T12:23:53;5.03;;;1.58;;
51921;SDS011;37948;53.260;6.394;2022-09-09T12:26:28;6.88;;;1.42;;
51921;SDS011;37948;53.260;6.394;2022-09-09T12:31:45;6.65;;;1.83;;
51921;SDS011;37948;53.260;6.394;2022-09-09T12:34:42;7.70;;;1.42;;
51921;SDS011;37948;53.260;6.394;2022-09-09T12:40:00;6.20;;;0.80;;
51921;SDS011;37948;53.260;6.394;2022-09-09T12:42:29;8.57;;;1.08;;
51921;SDS011;37948;53.260;6.394;2022-09-09T12:44:56;5.22;;;1.15;;
51921;SDS011;37948;53.260;6.394;2022-09-09T12:47:30;5.75;;;1.20;;
51921;SDS011;37948;53.260;6.394;2022-09-09T12:50:03;4.13;;;1.13;;
51921;SDS011;37948;53.260;6.394;2022-09-09T12:52:31;3.78;;;1.02;;
51921;SDS011;37948;53.260;6.394;2022-09-09T12:55:00;7.15;;;2.22;;
51921;SDS011;37948;53.260;6.394;2022-09-09T12:57:31;4.45;;;1.00;;
51921;SDS011;37948;53.260;6.394;2022-09-09T13:00:08;4.57;;;1.10;;
51921;SDS011;37948;53.260;6.394;2022-09-09T13:02:49;7.13;;;1.02;;
51921;SDS011;37948;53.260;6.394;2022-09-09T13:05:24;3.50;;;1.38;;
51921;SDS011;37948;53.260;6.394;2022-09-09T13:07:50;4.22;;;1.17;;
51921;SDS011;37948;53.260;6.394;2022-09-09T13:10:24;5.68;;;1.25;;
51921;SDS011;37948;53.260;6.394;2022-09-09T13:12:53;2.47;;;0.95;;
51921;SDS011;37948;53.260;6.394;2022-09-09T13:15:23;7.70;;;1.38;;
51921;SDS011;37948;53.260;6.394;2022-09-09T13:17:56;3.00;;;0.90;;
51921;SDS011;37948;53.260;6.394;2022-09-09T13:20:25;3.55;;;0.90;;
51921;SDS011;37948;53.260;6.394;2022-09-09T13:22:52;3.33;;;0.80;;
51921;SDS011;37948;53.260;6.394;2022-09-09T13:25:28;6.95;;;1.27;;
51921;SDS011;37948;53.260;6.394;2022-09-09T13:27:58;4.55;;;1.38;;
51921;SDS011;37948;53.260;6.394;2022-09-09T13:33:00;6.22;;;1.08;;
51921;SDS011;37948;53.260;6.394;2022-09-09T13:35:27;6.38;;;1.23;;
51921;SDS011;37948;53.260;6.394;2022-09-09T13:37:53;5.68;;;1.38;;
51921;SDS011;37948;53.260;6.394;2022-09-09T13:40:22;7.15;;;1.30;;
51921;SDS011;37948;53.260;6.394;2022-09-09T13:42:51;7.57;;;1.25;;
51921;SDS011;37948;53.260;6.394;2022-09-09T13:45:19;4.05;;;0.95;;
51921;SDS011;37948;53.260;6.394;2022-09-09T13:47:47;11.75;;;1.00;;
51921;SDS011;37948;53.260;6.394;2022-09-09T13:50:27;6.63;;;0.98;;
51921;SDS011;37948;53.260;6.394;2022-09-09T13:52:54;11.23;;;1.45;;
51921;SDS011;37948;53.260;6.394;2022-09-09T13:55:23;4.22;;;1.30;;
51921;SDS011;37948;53.260;6.394;2022-09-09T13:57:53;5.13;;;1.30;;
51921;SDS011;37948;53.260;6.394;2022-09-09T14:00:21;2.33;;;1.02;;
51921;SDS011;37948;53.260;6.394;2022-09-09T14:02:48;5.00;;;1.23;;
51921;SDS011;37948;53.260;6.394;2022-09-09T14:05:14;4.20;;;1.25;;
51921;SDS011;37948;53.260;6.394;2022-09-09T14:07:41;3.78;;;1.20;;
51921;SDS011;37948;53.260;6.394;2022-09-09T14:10:07;3.78;;;1.00;;
51921;SDS011;37948;53.260;6.394;2022-09-09T14:12:33;3.17;;;0.80;;
51921;SDS011;37948;53.260;6.394;2022-09-09T14:14:59;4.05;;;1.20;;
51921;SDS011;37948;53.260;6.394;2022-09-09T14:17:27;4.97;;;1.13;;
51921;SDS011;37948;53.260;6.394;2022-09-09T14:19:55;3.70;;;1.08;;
51921;SDS011;37948;53.260;6.394;2022-09-09T14:22:21;7.00;;;0.88;;
51921;SDS011;37948;53.260;6.394;2022-09-09T14:24:47;3.53;;;0.85;;
51921;SDS011;37948;53.260;6.394;2022-09-09T14:27:13;3.67;;;1.15;;
51921;SDS011;37948;53.260;6.394;2022-09-09T14:29:38;4.35;;;0.98;;
51921;SDS011;37948;53.260;6.394;2022-09-09T14:32:04;5.30;;;1.50;;
51921;SDS011;37948;53.260;6.394;2022-09-09T14:34:29;7.05;;;1.55;;
51921;SDS011;37948;53.260;6.394;2022-09-09T14:36:57;7.35;;;0.90;;
51921;SDS011;37948;53.260;6.394;2022-09-09T14:39:23;4.13;;;1.10;;
51921;SDS011;37948;53.260;6.394;2022-09-09T14:41:48;1.58;;;0.70;;
51921;SDS011;37948;53.260;6.394;2022-09-09T14:44:14;1.73;;;0.73;;
51921;SDS011;37948;53.260;6.394;2022-09-09T14:46:40;4.15;;;0.68;;
51921;SDS011;37948;53.260;6.394;2022-09-09T14:49:07;3.78;;;0.70;;
51921;SDS011;37948;53.260;6.394;2022-09-09T14:51:35;7.85;;;0.82;;
51921;SDS011;37948;53.260;6.394;2022-09-09T14:54:01;1.85;;;0.75;;
51921;SDS011;37948;53.260;6.394;2022-09-09T14:56:28;1.63;;;0.50;;
51921;SDS011;37948;53.260;6.394;2022-09-09T14:58:56;2.97;;;1.20;;
51921;SDS011;37948;53.260;6.394;2022-09-09T15:01:25;2.55;;;1.00;;
51921;SDS011;37948;53.260;6.394;2022-09-09T15:03:55;3.78;;;1.05;;
51921;SDS011;37948;53.260;6.394;2022-09-09T15:06:26;1.88;;;0.88;;
51921;SDS011;37948;53.260;6.394;2022-09-09T15:08:54;1.00;;;0.60;;
51921;SDS011;37948;53.260;6.394;2022-09-09T15:11:22;3.83;;;1.23;;
51921;SDS011;37948;53.260;6.394;2022-09-09T15:13:50;4.55;;;0.90;;
51921;SDS011;37948;53.260;6.394;2022-09-09T15:16:18;4.70;;;1.35;;
51921;SDS011;37948;53.260;6.394;2022-09-09T15:18:44;7.07;;;1.33;;
51921;SDS011;37948;53.260;6.394;2022-09-09T15:21:53;3.17;;;0.80;;
51921;SDS011;37948;53.260;6.394;2022-09-09T15:24:00;2.95;;;0.95;;
51921;SDS011;37948;53.260;6.394;2022-09-09T15:26:26;2.50;;;1.23;;
51921;SDS011;37948;53.260;6.394;2022-09-09T15:28:52;4.20;;;0.80;;
51921;SDS011;37948;53.260;6.394;2022-09-09T15:31:23;5.45;;;1.08;;
51921;SDS011;37948;53.260;6.394;2022-09-09T15:33:50;1.60;;;0.60;;
51921;SDS011;37948;53.260;6.394;2022-09-09T15:36:17;2.03;;;0.55;;
51921;SDS011;37948;53.260;6.394;2022-09-09T15:38:44;3.08;;;0.90;;
51921;SDS011;37948;53.260;6.394;2022-09-09T15:41:11;2.15;;;0.70;;
51921;SDS011;37948;53.260;6.394;2022-09-09T15:43:38;3.65;;;0.68;;
51921;SDS011;37948;53.260;6.394;2022-09-09T15:48:42;3.22;;;0.77;;
51921;SDS011;37948;53.260;6.394;2022-09-09T15:51:12;2.83;;;0.77;;
51921;SDS011;37948;53.260;6.394;2022-09-09T15:53:39;4.32;;;1.05;;
51921;SDS011;37948;53.260;6.394;2022-09-09T15:56:05;2.85;;;0.88;;
51921;SDS011;37948;53.260;6.394;2022-09-09T15:58:34;2.13;;;0.60;;
51921;SDS011;37948;53.260;6.394;2022-09-09T16:01:07;3.78;;;0.95;;
51921;SDS011;37948;53.260;6.394;2022-09-09T16:03:34;2.85;;;1.08;;
51921;SDS011;37948;53.260;6.394;2022-09-09T16:06:03;2.03;;;0.77;;
51921;SDS011;37948;53.260;6.394;2022-09-09T16:08:37;3.20;;;0.75;;
51921;SDS011;37948;53.260;6.394;2022-09-09T16:11:07;4.32;;;1.15;;
51921;SDS011;37948;53.260;6.394;2022-09-09T16:13:37;1.20;;;0.80;;
51921;SDS011;37948;53.260;6.394;2022-09-09T16:18:37;5.70;;;1.33;;
51921;SDS011;37948;53.260;6.394;2022-09-09T16:21:05;1.98;;;0.60;;
51921;SDS011;37948;53.260;6.394;2022-09-09T16:23:33;1.98;;;0.85;;
51921;SDS011;37948;53.260;6.394;2022-09-09T16:26:01;2.22;;;0.57;;
51921;SDS011;37948;53.260;6.394;2022-09-09T16:28:27;3.38;;;0.95;;
51921;SDS011;37948;53.260;6.394;2022-09-09T16:30:53;3.72;;;0.90;;
51921;SDS011;37948;53.260;6.394;2022-09-09T16:33:19;2.00;;;0.60;;
51921;SDS011;37948;53.260;6.394;2022-09-09T16:35:45;3.85;;;1.02;;
51921;SDS011;37948;53.260;6.394;2022-09-09T16:38:11;1.48;;;0.90;;
51921;SDS011;37948;53.260;6.394;2022-09-09T16:40:37;1.75;;;0.88;;
51921;SDS011;37948;53.260;6.394;2022-09-09T16:43:03;1.05;;;0.93;;
51921;SDS011;37948;53.260;6.394;2022-09-09T16:45:30;11.38;;;1.15;;
51921;SDS011;37948;53.260;6.394;2022-09-09T16:47:57;1.38;;;1.00;;
51921;SDS011;37948;53.260;6.394;2022-09-09T16:50:23;1.10;;;0.90;;
51921;SDS011;37948;53.260;6.394;2022-09-09T16:52:50;2.20;;;0.77;;
51921;SDS011;37948;53.260;6.394;2022-09-09T16:55:17;3.38;;;1.27;;